Time;durP1;ratioP1;P1;durP2;ratioP2;P2;SDS_P1;SDS_P2;PMS_P1;PMS_P2;Temp;Humidity;BMP_temperature;BMP_pressure;BME280_temperature;BME280_humidity;BME280_pressure;Samples;Min_cycle;Max_cycle;Signal;HPM_P1;HPM_P2
2023/02/11 00:01:00;;;;;;;4.78;3.25;;;;;;;;;;5060085;28;20013;-46
2023/02/11 00:03:26;;;;;;;5.25;3.58;;;;;;;;;;5059680;28;20457;-45
2023/02/11 00:05:58;;;;;;;4.97;3.28;;;;;;;;;;5062373;28;20112;-46
2023/02/11 00:08:25;;;;;;;4.38;3.13;;;;;;;;;;5064108;28;20078;-46
2023/02/11 00:10:52;;;;;;;5.28;3.58;;;;;;;;;;5071271;28;20505;-45
2023/02/11 00:13:17;;;;;;;5.20;3.30;;;;;;;;;;5070706;28;20027;-43
2023/02/11 00:15:43;;;;;;;4.18;3.22;;;;;;;;;;5071197;28;20394;-46
2023/02/11 00:18:09;;;;;;;6.05;3.30;;;;;;;;;;5070913;28;20017;-47
2023/02/11 00:20:37;;;;;;;6.80;3.63;;;;;;;;;;5053010;28;20036;-44
2023/02/11 00:23:03;;;;;;;5.93;3.65;;;;;;;;;;5066033;28;20036;-46
2023/02/11 00:25:29;;;;;;;5.28;3.33;;;;;;;;;;5065919;28;20029;-48
2023/02/11 00:27:55;;;;;;;5.22;3.30;;;;;;;;;;5071806;28;20025;-47
2023/02/11 00:30:21;;;;;;;6.93;3.55;;;;;;;;;;5069780;28;20473;-48
2023/02/11 00:32:47;;;;;;;5.55;3.50;;;;;;;;;;5071192;28;20043;-47
2023/02/11 00:35:13;;;;;;;4.63;3.03;;;;;;;;;;5069194;28;20366;-46
2023/02/11 00:37:39;;;;;;;6.00;3.60;;;;;;;;;;5060945;28;20032;-48
2023/02/11 00:40:05;;;;;;;5.28;3.30;;;;;;;;;;5064853;28;20024;-45
2023/02/11 00:42:32;;;;;;;5.90;3.75;;;;;;;;;;5070652;28;20040;-46
2023/02/11 00:44:58;;;;;;;4.45;3.45;;;;;;;;;;5067717;28;20025;-49
2023/02/11 00:47:23;;;;;;;3.75;3.05;;;;;;;;;;5069775;28;20389;-49
2023/02/11 00:49:49;;;;;;;4.63;3.35;;;;;;;;;;5068638;28;20032;-49
2023/02/11 00:52:15;;;;;;;4.57;3.13;;;;;;;;;;5070760;28;20055;-44
2023/02/11 00:54:41;;;;;;;4.70;3.80;;;;;;;;;;5064374;28;20377;-46
2023/02/11 00:57:07;;;;;;;6.07;3.85;;;;;;;;;;5060032;28;20024;-46
2023/02/11 00:59:33;;;;;;;6.60;3.90;;;;;;;;;;5069865;28;20097;-49
2023/02/11 01:01:59;;;;;;;3.67;2.83;;;;;;;;;;5069356;28;20056;-45
2023/02/11 01:04:25;;;;;;;5.97;3.38;;;;;;;;;;5069757;28;20035;-50
2023/02/11 01:06:51;;;;;;;6.07;3.35;;;;;;;;;;5071318;28;20071;-46
2023/02/11 01:09:19;;;;;;;6.25;3.65;;;;;;;;;;5060575;28;20068;-45
2023/02/11 01:11:45;;;;;;;5.00;3.88;;;;;;;;;;5062232;28;20072;-50
2023/02/11 01:14:11;;;;;;;5.63;3.58;;;;;;;;;;5069674;28;20040;-46
2023/02/11 01:16:38;;;;;;;8.18;3.97;;;;;;;;;;5070408;28;20024;-47
2023/02/11 01:19:04;;;;;;;6.60;3.38;;;;;;;;;;5069864;28;20073;-47
2023/02/11 01:21:30;;;;;;;6.43;3.55;;;;;;;;;;5064231;28;20041;-49
2023/02/11 01:23:55;;;;;;;5.47;3.65;;;;;;;;;;5068991;28;20040;-46
2023/02/11 01:26:21;;;;;;;5.00;3.60;;;;;;;;;;5069999;28;20461;-47
2023/02/11 01:28:47;;;;;;;6.38;4.05;;;;;;;;;;5056452;28;20078;-48
2023/02/11 01:31:14;;;;;;;5.03;3.50;;;;;;;;;;5057697;28;20499;-45
2023/02/11 01:33:40;;;;;;;5.35;3.65;;;;;;;;;;5065215;28;20083;-47
2023/02/11 01:36:07;;;;;;;4.45;3.22;;;;;;;;;;5070202;28;20086;-47
2023/02/11 01:38:33;;;;;;;4.60;3.40;;;;;;;;;;5060808;28;20078;-50
2023/02/11 01:41:00;;;;;;;5.07;3.47;;;;;;;;;;5068713;28;20037;-49
2023/02/11 01:43:30;;;;;;;4.97;3.50;;;;;;;;;;5068601;28;20032;-46
2023/02/11 01:45:56;;;;;;;4.57;3.25;;;;;;;;;;5065276;28;20030;-47
2023/02/11 01:48:24;;;;;;;5.43;3.33;;;;;;;;;;5063531;28;20386;-46
2023/02/11 01:50:52;;;;;;;4.45;3.30;;;;;;;;;;5061889;28;20036;-47
2023/02/11 01:58:48;;;;;;;5.43;3.70;;;;;;;;;;5069522;28;20123;-47
2023/02/11 02:01:16;;;;;;;6.43;3.78;;;;;;;;;;5073697;28;20082;-47
2023/02/11 02:03:44;;;;;;;4.78;3.55;;;;;;;;;;5072970;28;20082;-45
2023/02/11 02:06:19;;;;;;;5.70;3.50;;;;;;;;;;5071540;28;20040;-46
2023/02/11 02:09:01;;;;;;;4.60;3.63;;;;;;;;;;5072689;28;20033;-47
2023/02/11 02:11:27;;;;;;;4.88;3.58;;;;;;;;;;5070828;28;20070;-47
2023/02/11 02:13:53;;;;;;;4.43;3.55;;;;;;;;;;5065130;28;20025;-50
2023/02/11 02:16:21;;;;;;;5.07;3.65;;;;;;;;;;5071030;28;20539;-44
2023/02/11 02:18:50;;;;;;;6.63;3.78;;;;;;;;;;5067061;28;20078;-49
2023/02/11 02:21:25;;;;;;;5.30;3.58;;;;;;;;;;5072910;28;20024;-43
2023/02/11 02:24:14;;;;;;;6.25;3.67;;;;;;;;;;5069612;28;20124;-49
2023/02/11 02:26:59;;;;;;;6.50;4.13;;;;;;;;;;5026036;28;20135;-47
2023/02/11 02:29:31;;;;;;;5.90;4.07;;;;;;;;;;5068174;28;20060;-47
2023/02/11 02:32:16;;;;;;;5.75;3.70;;;;;;;;;;5073340;28;20494;-46
2023/02/11 02:34:44;;;;;;;6.00;3.70;;;;;;;;;;5070805;28;20033;-44
2023/02/11 02:37:15;;;;;;;4.70;3.47;;;;;;;;;;5073368;28;20020;-46
2023/02/11 02:39:43;;;;;;;4.97;3.13;;;;;;;;;;5065221;28;20149;-45
2023/02/11 02:42:09;;;;;;;5.03;3.28;;;;;;;;;;5068824;28;20497;-45
2023/02/11 02:44:35;;;;;;;4.70;3.60;;;;;;;;;;5058953;28;20097;-44
2023/02/11 02:47:01;;;;;;;5.40;3.63;;;;;;;;;;5070537;28;20521;-45
2023/02/11 02:49:27;;;;;;;4.88;3.50;;;;;;;;;;5067152;28;20024;-46
2023/02/11 02:51:52;;;;;;;4.93;3.60;;;;;;;;;;5071847;28;20024;-46
2023/02/11 02:54:37;;;;;;;5.93;4.10;;;;;;;;;;5066907;28;20458;-43
2023/02/11 02:57:35;;;;;;;5.40;3.53;;;;;;;;;;5059693;28;20381;-47
2023/02/11 03:00:22;;;;;;;4.47;3.28;;;;;;;;;;5027918;28;20036;-46
2023/02/11 03:03:03;;;;;;;7.68;3.70;;;;;;;;;;5069885;28;20025;-48
2023/02/11 03:05:47;;;;;;;5.27;3.50;;;;;;;;;;5061514;28;20035;-48
2023/02/11 03:08:36;;;;;;;7.10;4.05;;;;;;;;;;5072558;28;20071;-48
2023/02/11 03:11:02;;;;;;;8.32;3.65;;;;;;;;;;5011748;28;20052;-47
2023/02/11 03:13:32;;;;;;;4.95;3.50;;;;;;;;;;5023594;28;20036;-47
2023/02/11 03:16:00;;;;;;;5.47;3.72;;;;;;;;;;5050771;28;20489;-46
2023/02/11 03:18:27;;;;;;;4.60;3.47;;;;;;;;;;5041756;28;20033;-47
2023/02/11 03:20:54;;;;;;;4.65;3.65;;;;;;;;;;5051853;28;20123;-46
2023/02/11 03:23:27;;;;;;;5.95;3.97;;;;;;;;;;5042519;28;20110;-43
2023/02/11 03:26:04;;;;;;;5.43;3.55;;;;;;;;;;5050025;28;20029;-46
2023/02/11 03:28:37;;;;;;;5.28;3.50;;;;;;;;;;5044331;28;20469;-49
2023/02/11 03:31:26;;;;;;;5.63;3.45;;;;;;;;;;5052071;28;20033;-48
2023/02/11 03:33:58;;;;;;;4.07;3.30;;;;;;;;;;5051635;28;20114;-45
2023/02/11 03:36:47;;;;;;;6.85;3.58;;;;;;;;;;5045167;28;20482;-45
2023/02/11 03:39:15;;;;;;;6.35;4.13;;;;;;;;;;5041876;28;20049;-45
2023/02/11 03:41:42;;;;;;;4.90;3.30;;;;;;;;;;5046390;28;20021;-46
2023/02/11 03:44:10;;;;;;;5.57;3.50;;;;;;;;;;5044129;28;20041;-46
2023/02/11 03:46:38;;;;;;;5.40;4.10;;;;;;;;;;5045602;28;20883;-48
2023/02/11 03:49:08;;;;;;;4.70;3.40;;;;;;;;;;5050431;28;20039;-47
2023/02/11 03:51:34;;;;;;;5.07;3.38;;;;;;;;;;5050812;28;20032;-47
2023/02/11 03:54:02;;;;;;;6.18;4.05;;;;;;;;;;5050063;28;20504;-45
2023/02/11 03:56:29;;;;;;;6.30;3.75;;;;;;;;;;5047105;28;20351;-46
2023/02/11 03:58:55;;;;;;;6.45;3.83;;;;;;;;;;5043309;28;20020;-45
2023/02/11 04:01:21;;;;;;;5.97;3.70;;;;;;;;;;5050718;28;20029;-48
2023/02/11 04:03:47;;;;;;;4.90;3.85;;;;;;;;;;5040186;28;20516;-48
2023/02/11 04:06:13;;;;;;;4.88;3.53;;;;;;;;;;5049263;28;20048;-46
2023/02/11 04:08:39;;;;;;;6.05;3.97;;;;;;;;;;5045198;28;20626;-47
2023/02/11 04:11:05;;;;;;;5.75;3.70;;;;;;;;;;5063189;28;20036;-44
2023/02/11 04:13:31;;;;;;;5.47;3.83;;;;;;;;;;5062493;28;20021;-50
2023/02/11 04:15:57;;;;;;;5.07;3.40;;;;;;;;;;5071234;28;20029;-48
2023/02/11 04:18:23;;;;;;;6.38;4.30;;;;;;;;;;5054929;28;20104;-47
2023/02/11 04:20:50;;;;;;;6.28;4.07;;;;;;;;;;5070741;28;20032;-48
2023/02/11 04:23:16;;;;;;;6.65;4.00;;;;;;;;;;5071127;28;20021;-43
2023/02/11 04:25:42;;;;;;;5.47;3.30;;;;;;;;;;5067766;28;20035;-46
2023/02/11 04:28:08;;;;;;;4.07;3.10;;;;;;;;;;5064565;28;20027;-45
2023/02/11 04:30:34;;;;;;;5.30;3.45;;;;;;;;;;5068539;28;20020;-44
2023/02/11 04:33:00;;;;;;;5.22;3.50;;;;;;;;;;5060379;28;20024;-50
2023/02/11 04:35:26;;;;;;;6.80;4.13;;;;;;;;;;5062808;28;20028;-49
2023/02/11 04:37:52;;;;;;;6.05;3.50;;;;;;;;;;5067310;28;20029;-45
2023/02/11 04:40:18;;;;;;;6.88;3.65;;;;;;;;;;5064373;28;20029;-45
2023/02/11 04:42:44;;;;;;;5.15;3.67;;;;;;;;;;5071067;28;20477;-49
2023/02/11 04:45:10;;;;;;;7.03;3.53;;;;;;;;;;5070405;28;20037;-46
2023/02/11 04:47:36;;;;;;;4.45;3.10;;;;;;;;;;5069850;28;20530;-46
2023/02/11 04:50:02;;;;;;;4.40;3.40;;;;;;;;;;5058519;28;20024;-47
2023/02/11 04:52:28;;;;;;;5.40;3.53;;;;;;;;;;5059340;28;20025;-48
2023/02/11 04:54:54;;;;;;;4.80;3.47;;;;;;;;;;5065899;28;20028;-47
2023/02/11 04:57:20;;;;;;;5.72;3.85;;;;;;;;;;5070115;28;20021;-42
2023/02/11 04:59:47;;;;;;;5.28;3.85;;;;;;;;;;5070667;28;20029;-46
2023/02/11 05:02:13;;;;;;;5.82;3.50;;;;;;;;;;5062115;28;20393;-44
2023/02/11 05:04:39;;;;;;;6.20;3.55;;;;;;;;;;5056329;28;20050;-45
2023/02/11 05:07:05;;;;;;;5.93;3.17;;;;;;;;;;5056463;28;20029;-49
2023/02/11 05:09:31;;;;;;;5.10;3.10;;;;;;;;;;5065382;28;20044;-44
2023/02/11 05:11:57;;;;;;;4.97;3.65;;;;;;;;;;5067585;28;20468;-44
2023/02/11 05:14:23;;;;;;;4.50;3.33;;;;;;;;;;5062025;28;20482;-45
2023/02/11 05:16:49;;;;;;;4.90;3.25;;;;;;;;;;5069785;28;20033;-46
2023/02/11 05:19:15;;;;;;;5.30;3.53;;;;;;;;;;5070467;28;20508;-44
2023/02/11 05:21:41;;;;;;;7.70;3.90;;;;;;;;;;5068822;28;20041;-44
2023/02/11 05:24:07;;;;;;;5.55;3.78;;;;;;;;;;5056877;28;20112;-44
2023/02/11 05:26:33;;;;;;;6.07;3.90;;;;;;;;;;5042043;28;20067;-48
2023/02/11 05:28:59;;;;;;;4.15;3.00;;;;;;;;;;5064566;28;20107;-48
2023/02/11 05:31:25;;;;;;;8.07;3.63;;;;;;;;;;5067775;28;20131;-45
2023/02/11 05:33:51;;;;;;;5.25;3.47;;;;;;;;;;5069695;28;20501;-46
2023/02/11 05:36:17;;;;;;;5.63;3.67;;;;;;;;;;5067350;28;20039;-44
2023/02/11 05:38:43;;;;;;;5.32;3.40;;;;;;;;;;5068142;28;20561;-48
2023/02/11 05:41:10;;;;;;;5.55;3.53;;;;;;;;;;5069965;28;20034;-46
2023/02/11 05:43:36;;;;;;;7.70;4.30;;;;;;;;;;5066288;28;20025;-46
2023/02/11 05:46:03;;;;;;;5.20;3.97;;;;;;;;;;5067255;28;20437;-45
2023/02/11 05:48:29;;;;;;;4.97;3.15;;;;;;;;;;5070506;28;20055;-43
2023/02/11 05:50:55;;;;;;;6.85;3.72;;;;;;;;;;5071298;28;20045;-46
2023/02/11 05:53:21;;;;;;;4.72;3.30;;;;;;;;;;5075302;28;20020;-45
2023/02/11 05:55:47;;;;;;;5.32;3.38;;;;;;;;;;5063887;28;20520;-47
2023/02/11 05:58:13;;;;;;;5.68;4.10;;;;;;;;;;5061223;28;20051;-44
2023/02/11 06:00:39;;;;;;;4.22;3.17;;;;;;;;;;5067619;28;20169;-47
2023/02/11 06:03:05;;;;;;;5.25;3.85;;;;;;;;;;5071456;28;20078;-47
2023/02/11 06:05:31;;;;;;;6.47;4.38;;;;;;;;;;5063761;28;20040;-45
2023/02/11 06:07:57;;;;;;;4.93;3.80;;;;;;;;;;5064591;28;20027;-45
2023/02/11 06:10:23;;;;;;;5.53;3.72;;;;;;;;;;5052735;28;20091;-44
2023/02/11 06:12:49;;;;;;;6.22;3.58;;;;;;;;;;5051033;28;20402;-46
2023/02/11 06:15:15;;;;;;;4.43;3.35;;;;;;;;;;5052038;28;20036;-45
2023/02/11 06:17:41;;;;;;;7.78;4.50;;;;;;;;;;5045814;28;20086;-46
2023/02/11 06:20:08;;;;;;;5.60;3.63;;;;;;;;;;5050504;28;20142;-45
2023/02/11 06:22:34;;;;;;;4.80;3.33;;;;;;;;;;5051283;28;20379;-46
2023/02/11 06:25:00;;;;;;;5.93;3.65;;;;;;;;;;5050317;28;20124;-47
2023/02/11 06:27:26;;;;;;;7.00;4.53;;;;;;;;;;5046357;28;20181;-47
2023/02/11 06:29:52;;;;;;;5.15;3.80;;;;;;;;;;5038184;28;20044;-44
2023/02/11 06:32:19;;;;;;;5.03;3.35;;;;;;;;;;5047892;28;20393;-47
2023/02/11 06:34:45;;;;;;;6.10;3.78;;;;;;;;;;5048741;28;20029;-47
2023/02/11 06:37:11;;;;;;;5.00;3.60;;;;;;;;;;5041538;28;20048;-48
2023/02/11 06:39:37;;;;;;;5.13;3.53;;;;;;;;;;5044294;28;20842;-48
2023/02/11 06:42:03;;;;;;;9.90;3.70;;;;;;;;;;5047592;28;20090;-47
2023/02/11 06:44:30;;;;;;;5.65;3.67;;;;;;;;;;5051575;28;20025;-49
2023/02/11 06:46:56;;;;;;;5.85;3.92;;;;;;;;;;5036933;28;20033;-51
2023/02/11 06:49:22;;;;;;;5.15;3.60;;;;;;;;;;5055010;28;20083;-47
2023/02/11 06:51:48;;;;;;;9.30;3.67;;;;;;;;;;5042040;28;20042;-46
2023/02/11 06:54:14;;;;;;;5.18;3.90;;;;;;;;;;5055651;28;20347;-46
2023/02/11 06:56:40;;;;;;;4.82;3.40;;;;;;;;;;5044499;28;20045;-46
2023/02/11 06:59:06;;;;;;;8.25;4.97;;;;;;;;;;5059208;28;20016;-48
2023/02/11 07:01:33;;;;;;;7.03;4.03;;;;;;;;;;5042943;28;20129;-46
2023/02/11 07:03:59;;;;;;;5.97;3.65;;;;;;;;;;5051016;28;20029;-46
2023/02/11 07:06:26;;;;;;;5.22;3.92;;;;;;;;;;5045486;28;20041;-47
2023/02/11 07:08:52;;;;;;;7.25;4.20;;;;;;;;;;5053265;28;20025;-49
2023/02/11 07:11:23;;;;;;;7.43;4.13;;;;;;;;;;5049498;28;20669;-44
2023/02/11 07:13:49;;;;;;;6.10;3.88;;;;;;;;;;5071362;28;20013;-46
2023/02/11 07:16:16;;;;;;;6.18;4.25;;;;;;;;;;5066998;28;20114;-52
2023/02/11 07:18:42;;;;;;;5.95;3.80;;;;;;;;;;5075924;28;20027;-46
2023/02/11 07:21:09;;;;;;;6.80;4.05;;;;;;;;;;5063878;28;20119;-46
2023/02/11 07:23:35;;;;;;;6.35;3.88;;;;;;;;;;5063954;28;20037;-47
2023/02/11 07:26:06;;;;;;;6.30;3.95;;;;;;;;;;5067343;28;20127;-49
2023/02/11 07:28:32;;;;;;;4.97;3.65;;;;;;;;;;5062954;28;20048;-49
2023/02/11 07:30:58;;;;;;;6.05;4.00;;;;;;;;;;5057113;28;20075;-47
2023/02/11 07:33:24;;;;;;;5.80;4.50;;;;;;;;;;5066816;28;20446;-47
2023/02/11 07:35:49;;;;;;;5.25;3.42;;;;;;;;;;5063915;28;20040;-49
2023/02/11 07:38:15;;;;;;;5.78;3.72;;;;;;;;;;5067160;28;20111;-47
2023/02/11 07:40:41;;;;;;;10.13;4.18;;;;;;;;;;5064829;28;20066;-48
2023/02/11 07:43:08;;;;;;;6.35;4.28;;;;;;;;;;5067570;28;20430;-50
2023/02/11 07:45:34;;;;;;;5.50;4.10;;;;;;;;;;5059912;28;20049;-48
2023/02/11 07:48:00;;;;;;;6.43;4.63;;;;;;;;;;5068788;28;20157;-46
2023/02/11 07:50:26;;;;;;;5.75;3.67;;;;;;;;;;5057169;28;20037;-49
2023/02/11 07:52:52;;;;;;;5.95;4.03;;;;;;;;;;5063392;28;20090;-49
2023/02/11 07:55:18;;;;;;;5.70;3.97;;;;;;;;;;5062937;28;20085;-46
2023/02/11 07:57:44;;;;;;;5.70;4.07;;;;;;;;;;5071564;28;20024;-51
2023/02/11 08:00:10;;;;;;;5.22;4.20;;;;;;;;;;5065046;28;20028;-52
2023/02/11 08:02:36;;;;;;;6.70;4.43;;;;;;;;;;5065175;28;20478;-48
2023/02/11 08:05:02;;;;;;;5.20;3.70;;;;;;;;;;5071966;28;20502;-47
2023/02/11 08:07:28;;;;;;;6.20;3.70;;;;;;;;;;5068789;28;20107;-50
2023/02/11 08:09:54;;;;;;;7.13;4.20;;;;;;;;;;5065379;28;20041;-50
2023/02/11 08:12:20;;;;;;;8.73;3.78;;;;;;;;;;5067314;28;20035;-46
2023/02/11 08:14:46;;;;;;;10.18;4.07;;;;;;;;;;5064173;28;20025;-51
2023/02/11 08:17:12;;;;;;;7.10;4.10;;;;;;;;;;5070835;28;20021;-52
2023/02/11 08:19:39;;;;;;;6.10;3.80;;;;;;;;;;5052899;28;20626;-49
2023/02/11 08:22:05;;;;;;;5.93;3.83;;;;;;;;;;5061291;28;20418;-47
2023/02/11 08:24:31;;;;;;;6.63;3.92;;;;;;;;;;5059367;28;20040;-48
2023/02/11 08:26:57;;;;;;;7.15;4.25;;;;;;;;;;5058187;28;20120;-50
2023/02/11 08:29:23;;;;;;;5.43;3.92;;;;;;;;;;5062393;28;20043;-51
2023/02/11 08:31:49;;;;;;;7.53;4.05;;;;;;;;;;5059993;28;20029;-51
2023/02/11 08:34:17;;;;;;;5.93;4.20;;;;;;;;;;5056796;28;20104;-47
2023/02/11 08:36:44;;;;;;;4.45;3.67;;;;;;;;;;5059565;28;20473;-46
2023/02/11 08:39:14;;;;;;;4.90;3.67;;;;;;;;;;5055811;28;20125;-47
2023/02/11 08:41:40;;;;;;;5.10;3.55;;;;;;;;;;5067024;28;20037;-47
2023/02/11 08:44:06;;;;;;;7.00;4.85;;;;;;;;;;5057665;28;20047;-47
2023/02/11 08:46:32;;;;;;;4.90;3.20;;;;;;;;;;5057469;28;20039;-47
2023/02/11 08:48:58;;;;;;;5.75;4.20;;;;;;;;;;5067728;28;20044;-48
2023/02/11 08:51:26;;;;;;;8.52;4.97;;;;;;;;;;5061952;28;20482;-51
2023/02/11 08:53:52;;;;;;;6.45;4.35;;;;;;;;;;5061879;28;20071;-50
2023/02/11 08:56:19;;;;;;;5.50;3.92;;;;;;;;;;5062413;28;20040;-45
2023/02/11 08:58:45;;;;;;;4.95;4.13;;;;;;;;;;5065200;28;20128;-47
2023/02/11 09:01:37;;;;;;;5.60;3.97;;;;;;;;;;5054046;28;20517;-50
2023/02/11 09:04:03;;;;;;;6.53;4.18;;;;;;;;;;5056939;28;20056;-49
2023/02/11 09:06:30;;;;;;;5.03;3.63;;;;;;;;;;5061854;28;20029;-48
2023/02/11 09:08:56;;;;;;;7.90;4.38;;;;;;;;;;5064498;28;20111;-47
2023/02/11 09:11:25;;;;;;;5.55;4.32;;;;;;;;;;5065827;28;20020;-46
2023/02/11 09:13:51;;;;;;;6.78;4.35;;;;;;;;;;5061101;28;20107;-46
2023/02/11 09:16:19;;;;;;;6.45;3.95;;;;;;;;;;5069418;28;20031;-43
2023/02/11 09:18:45;;;;;;;5.63;3.92;;;;;;;;;;5065907;28;20024;-47
2023/02/11 09:21:12;;;;;;;8.05;4.20;;;;;;;;;;5066365;28;20036;-48
2023/02/11 09:23:40;;;;;;;5.82;3.95;;;;;;;;;;5062025;28;20200;-47
2023/02/11 09:26:07;;;;;;;8.82;4.10;;;;;;;;;;5070019;28;20052;-48
2023/02/11 09:28:33;;;;;;;9.13;4.65;;;;;;;;;;5062543;28;20032;-47
2023/02/11 09:30:59;;;;;;;4.68;3.85;;;;;;;;;;5070205;28;20035;-50
2023/02/11 09:33:26;;;;;;;7.30;4.20;;;;;;;;;;5065133;28;20021;-48
2023/02/11 09:35:51;;;;;;;6.13;3.97;;;;;;;;;;5058411;28;20318;-47
2023/02/11 09:38:17;;;;;;;7.15;3.85;;;;;;;;;;5068346;28;20127;-44
2023/02/11 09:40:44;;;;;;;5.53;3.55;;;;;;;;;;5068689;28;20401;-49
2023/02/11 09:43:19;;;;;;;5.40;4.18;;;;;;;;;;5063108;28;20032;-47
2023/02/11 09:45:46;;;;;;;8.52;4.20;;;;;;;;;;5062882;28;20539;-48
2023/02/11 09:48:16;;;;;;;4.93;4.18;;;;;;;;;;5070154;28;20036;-50
2023/02/11 09:50:50;;;;;;;5.47;3.58;;;;;;;;;;5068427;28;20469;-47
2023/02/11 09:53:23;;;;;;;5.78;3.85;;;;;;;;;;5069441;28;20031;-44
2023/02/11 09:55:54;;;;;;;6.07;3.55;;;;;;;;;;5067504;28;20028;-47
2023/02/11 09:58:24;;;;;;;5.35;3.47;;;;;;;;;;5064733;28;20053;-44
2023/02/11 10:01:05;;;;;;;5.30;3.60;;;;;;;;;;5056341;28;20055;-46
2023/02/11 10:03:31;;;;;;;6.80;4.60;;;;;;;;;;5063643;28;20052;-44
2023/02/11 10:05:57;;;;;;;5.43;3.50;;;;;;;;;;5065265;28;20070;-47
2023/02/11 10:08:29;;;;;;;7.25;3.78;;;;;;;;;;5067807;28;20032;-45
2023/02/11 10:11:08;;;;;;;9.02;4.38;;;;;;;;;;5058636;28;20512;-46
2023/02/11 10:13:47;;;;;;;14.60;5.07;;;;;;;;;;5064505;28;20504;-44
2023/02/11 10:16:21;;;;;;;10.02;3.85;;;;;;;;;;5065723;28;20032;-45
2023/02/11 10:19:06;;;;;;;13.60;5.90;;;;;;;;;;5065181;28;20078;-46
2023/02/11 10:21:45;;;;;;;5.68;3.97;;;;;;;;;;5066443;28;20017;-47
2023/02/11 10:24:12;;;;;;;6.45;3.65;;;;;;;;;;5067853;28;20021;-48
2023/02/11 10:26:45;;;;;;;8.23;4.28;;;;;;;;;;5056763;28;20625;-46
2023/02/11 10:29:29;;;;;;;9.00;3.80;;;;;;;;;;5063768;28;20048;-51
2023/02/11 10:31:56;;;;;;;6.88;3.97;;;;;;;;;;5067003;28;20071;-49
2023/02/11 10:34:22;;;;;;;7.07;3.85;;;;;;;;;;5065025;28;20377;-46
2023/02/11 10:36:48;;;;;;;6.90;4.28;;;;;;;;;;5056882;28;20025;-49
2023/02/11 10:39:22;;;;;;;5.88;4.05;;;;;;;;;;5062378;28;20435;-50
2023/02/11 10:41:56;;;;;;;8.60;4.00;;;;;;;;;;5061349;28;20071;-48
2023/02/11 10:44:33;;;;;;;6.30;4.20;;;;;;;;;;5061237;28;20024;-50
2023/02/11 10:47:00;;;;;;;5.93;3.88;;;;;;;;;;5066182;28;20099;-47
2023/02/11 10:49:34;;;;;;;7.55;3.97;;;;;;;;;;5063812;28;20032;-46
2023/02/11 10:52:18;;;;;;;5.85;3.92;;;;;;;;;;5064934;28;20103;-48
2023/02/11 10:55:00;;;;;;;5.72;4.10;;;;;;;;;;5069819;28;20029;-48
2023/02/11 10:57:28;;;;;;;8.03;3.97;;;;;;;;;;5065110;28;20024;-50
2023/02/11 10:59:58;;;;;;;7.53;4.13;;;;;;;;;;5071257;28;20040;-48
2023/02/11 11:02:34;;;;;;;8.30;4.40;;;;;;;;;;5071023;28;20112;-47
2023/02/11 11:05:01;;;;;;;19.55;12.18;;;;;;;;;;5066162;28;20390;-47
2023/02/11 11:07:32;;;;;;;19.63;11.75;;;;;;;;;;5067241;28;20086;-48
2023/02/11 11:10:18;;;;;;;20.08;12.90;;;;;;;;;;5068164;28;20167;-49
2023/02/11 11:12:44;;;;;;;18.50;11.32;;;;;;;;;;5063257;28;20500;-46
2023/02/11 11:15:10;;;;;;;16.55;10.15;;;;;;;;;;5057660;28;20135;-47
2023/02/11 11:17:36;;;;;;;15.68;9.38;;;;;;;;;;5064469;28;20032;-48
2023/02/11 11:20:26;;;;;;;15.15;8.90;;;;;;;;;;5050578;28;20036;-47
2023/02/11 11:22:53;;;;;;;14.55;7.90;;;;;;;;;;5069291;28;20021;-47
2023/02/11 11:25:21;;;;;;;13.05;8.00;;;;;;;;;;5059757;28;20051;-45
2023/02/11 11:27:54;;;;;;;13.52;7.32;;;;;;;;;;5069688;28;20536;-47
2023/02/11 11:30:20;;;;;;;11.45;6.78;;;;;;;;;;5066844;28;20032;-44
2023/02/11 11:32:46;;;;;;;12.80;7.35;;;;;;;;;;5069422;28;20419;-48
2023/02/11 11:35:24;;;;;;;9.73;6.13;;;;;;;;;;5064027;28;20422;-47
2023/02/11 11:37:59;;;;;;;8.57;5.90;;;;;;;;;;5067192;28;20497;-48
2023/02/11 11:40:29;;;;;;;12.38;6.65;;;;;;;;;;5065211;28;20040;-48
2023/02/11 11:43:04;;;;;;;10.07;6.13;;;;;;;;;;5066263;28;20024;-49
2023/02/11 11:45:30;;;;;;;10.45;5.82;;;;;;;;;;5054908;28;20053;-45
2023/02/11 11:48:02;;;;;;;10.30;6.05;;;;;;;;;;5066252;28;20389;-47
2023/02/11 11:50:28;;;;;;;;;;;;;;;;;;5067232;28;20131;-46
2023/02/11 11:52:58;;;;;;;10.90;6.35;;;;;;;;;;5068691;28;20011;-50
2023/02/11 11:55:31;;;;;;;10.60;6.25;;;;;;;;;;5060906;28;20039;-48
2023/02/11 11:57:57;;;;;;;12.52;6.10;;;;;;;;;;5065109;28;20402;-48
2023/02/11 12:00:37;;;;;;;8.23;5.57;;;;;;;;;;5059713;28;20047;-49
2023/02/11 12:03:14;;;;;;;8.65;5.20;;;;;;;;;;5069355;28;20386;-51
2023/02/11 12:05:43;;;;;;;7.93;5.30;;;;;;;;;;5050900;28;20140;-47
2023/02/11 12:08:18;;;;;;;9.15;5.00;;;;;;;;;;5065434;28;20021;-49
2023/02/11 12:10:54;;;;;;;8.52;5.07;;;;;;;;;;5053183;28;20079;-50
2023/02/11 12:13:20;;;;;;;7.30;4.53;;;;;;;;;;5065858;28;20025;-47
2023/02/11 12:15:52;;;;;;;10.02;4.80;;;;;;;;;;5051781;28;20044;-49
2023/02/11 12:18:27;;;;;;;9.00;5.00;;;;;;;;;;5064546;28;20040;-44
2023/02/11 12:21:08;;;;;;;7.45;4.90;;;;;;;;;;5055459;28;20425;-48
2023/02/11 12:23:58;;;;;;;10.60;5.30;;;;;;;;;;5056279;28;20029;-52
2023/02/11 12:26:29;;;;;;;17.55;9.45;;;;;;;;;;5055987;28;20044;-49
2023/02/11 12:29:13;;;;;;;18.48;8.68;;;;;;;;;;5069295;28;20024;-51
2023/02/11 12:31:39;;;;;;;17.80;7.78;;;;;;;;;;5060897;28;20044;-46
2023/02/11 12:34:05;;;;;;;16.38;7.07;;;;;;;;;;5063783;28;20028;-49
2023/02/11 12:36:44;;;;;;;18.50;6.95;;;;;;;;;;5065226;28;20120;-47
2023/02/11 12:39:13;;;;;;;16.65;8.43;;;;;;;;;;5047731;28;20119;-47
2023/02/11 12:44:54;;;;;;;14.90;6.53;;;;;;;;;;5068135;28;20085;-47
2023/02/11 12:47:41;;;;;;;15.15;6.18;;;;;;;;;;5073606;28;20032;-47
2023/02/11 12:50:27;;;;;;;15.02;6.10;;;;;;;;;;5035717;28;20045;-46
2023/02/11 12:52:56;;;;;;;14.05;5.80;;;;;;;;;;5061660;28;20036;-46
2023/02/11 12:55:23;;;;;;;12.93;5.50;;;;;;;;;;5070171;28;20099;-45
2023/02/11 12:57:50;;;;;;;10.75;5.55;;;;;;;;;;5067312;28;20413;-47
2023/02/11 13:00:18;;;;;;;15.98;6.47;;;;;;;;;;5074669;28;20024;-47
2023/02/11 13:03:05;;;;;;;10.80;5.18;;;;;;;;;;5077041;28;20031;-47
2023/02/11 13:05:36;;;;;;;10.57;4.30;;;;;;;;;;5070863;28;20108;-47
2023/02/11 13:08:17;;;;;;;8.80;4.57;;;;;;;;;;5064820;28;20035;-47
2023/02/11 13:10:46;;;;;;;15.95;4.82;;;;;;;;;;5066766;28;20048;-47
2023/02/11 13:13:18;;;;;;;13.82;4.65;;;;;;;;;;5066709;28;20047;-48
2023/02/11 13:15:53;;;;;;;9.32;4.22;;;;;;;;;;5069167;28;20032;-49
2023/02/11 13:18:35;;;;;;;8.45;4.40;;;;;;;;;;5068793;28;20025;-44
2023/02/11 13:21:21;;;;;;;17.02;5.85;;;;;;;;;;5068363;28;20575;-47
2023/02/11 13:23:59;;;;;;;10.30;4.32;;;;;;;;;;5060526;28;20466;-48
2023/02/11 13:26:29;;;;;;;11.10;4.07;;;;;;;;;;5059045;28;20029;-48
2023/02/11 13:29:01;;;;;;;8.43;3.75;;;;;;;;;;5069394;28;20082;-48
2023/02/11 13:31:28;;;;;;;10.55;4.03;;;;;;;;;;5070266;28;20039;-48
2023/02/11 13:33:55;;;;;;;7.90;3.90;;;;;;;;;;5068739;28;20473;-46
2023/02/11 13:36:22;;;;;;;26.73;5.05;;;;;;;;;;5069084;28;20037;-45
2023/02/11 13:38:53;;;;;;;7.97;3.53;;;;;;;;;;5068074;28;20381;-47
2023/02/11 13:41:25;;;;;;;9.00;5.30;;;;;;;;;;5064104;28;20029;-44
2023/02/11 13:43:51;;;;;;;;;;;;;;;;;;5066270;28;20029;-47
2023/02/11 13:46:18;;;;;;;8.85;3.90;;;;;;;;;;5068119;28;19919;-44
2023/02/11 13:48:51;;;;;;;8.77;4.28;;;;;;;;;;5058132;28;20029;-48
2023/02/11 13:51:32;;;;;;;8.70;3.90;;;;;;;;;;5070319;28;20025;-50
2023/02/11 13:53:58;;;;;;;6.85;4.07;;;;;;;;;;5063236;28;20035;-48
2023/02/11 13:56:29;;;;;;;6.63;4.15;;;;;;;;;;5072911;28;20020;-45
2023/02/11 13:58:55;;;;;;;7.27;3.53;;;;;;;;;;5070074;28;20098;-47
2023/02/11 14:01:41;;;;;;;7.72;3.55;;;;;;;;;;5071785;28;20019;-45
2023/02/11 14:10:29;;;;;;;5.80;3.00;;;;;;;;;;5077166;28;20059;-51
2023/02/11 14:13:13;;;;;;;6.50;3.70;;;;;;;;;;5079943;28;20032;-49
2023/02/11 14:15:40;;;;;;;5.85;3.25;;;;;;;;;;5069661;28;20111;-47
2023/02/11 14:18:24;;;;;;;8.02;3.15;;;;;;;;;;5073609;28;20037;-46
2023/02/11 14:20:52;;;;;;;5.53;3.15;;;;;;;;;;5058813;28;20025;-47
2023/02/11 14:23:23;;;;;;;7.00;3.22;;;;;;;;;;5063451;28;20478;-44
2023/02/11 14:25:59;;;;;;;8.38;3.15;;;;;;;;;;5070392;28;20115;-48
2023/02/11 14:28:31;;;;;;;6.13;3.25;;;;;;;;;;5059237;28;20032;-48
2023/02/11 14:31:17;;;;;;;8.13;3.75;;;;;;;;;;5065980;28;20428;-47
2023/02/11 14:33:44;;;;;;;5.68;3.35;;;;;;;;;;5070540;28;20056;-48
2023/02/11 14:36:10;;;;;;;7.15;4.13;;;;;;;;;;5071529;28;20037;-47
2023/02/11 14:38:39;;;;;;;7.35;4.20;;;;;;;;;;5061347;28;20083;-45
2023/02/11 14:41:05;;;;;;;5.45;3.22;;;;;;;;;;5066770;28;20049;-46
2023/02/11 14:43:35;;;;;;;6.28;2.85;;;;;;;;;;5070474;28;20067;-48
2023/02/11 14:46:02;;;;;;;5.35;3.28;;;;;;;;;;5073113;28;20083;-48
2023/02/11 14:48:30;;;;;;;5.05;2.78;;;;;;;;;;5058899;28;20083;-48
2023/02/11 14:51:06;;;;;;;4.78;3.10;;;;;;;;;;5069989;28;20086;-49
2023/02/11 14:53:33;;;;;;;5.63;3.38;;;;;;;;;;5067759;28;20025;-48
2023/02/11 14:55:59;;;;;;;4.97;2.88;;;;;;;;;;5050011;28;20039;-46
2023/02/11 14:58:29;;;;;;;6.20;3.00;;;;;;;;;;5070357;28;20389;-48
2023/02/11 15:00:57;;;;;;;6.07;3.60;;;;;;;;;;5070146;28;20040;-49
2023/02/11 15:03:34;;;;;;;5.05;3.03;;;;;;;;;;5058712;28;20051;-50
2023/02/11 15:06:20;;;;;;;5.10;2.70;;;;;;;;;;5070050;28;20746;-47
2023/02/11 15:08:52;;;;;;;6.68;3.63;;;;;;;;;;5070409;28;20028;-48